Chestnut Hill, Connecticut
Current Conditions -  °F | °C
As of 9:52 PM on Wednesday 26 Nov 2014 (Local Time) from KIJD Reporting Station
Light Snow Light Snow  
Wind Chill: 27°   Ceiling: 1300
Heat Index: 35°   Visibility: 3mi
Dew Point: 32°   Wind: 12mph
Humidity: 89%   Direction: 360°N
Pressure: 29.7"   Gusts: NA
Location:  41.7073°N, 72.2065°W
Report Text: KIJD 270252Z AUTO 36010KT 3SM -SN BR BKN013 OVC019 02/00 A2970 RMK AO2 RAE25SNB25 SLP059 P0003 60011 T00170000 58001
Loading
Personal Weather Stations






























Interactive Weather Map New forecast layout! Learn more

10-Day Weather Forecast

Advertisements
Track Severe Weather on mobile